Time;durP1;ratioP1;P1;durP2;ratioP2;P2;SDS_P1;SDS_P2;PMS_P1;PMS_P2;Temp;Humidity;BMP_temperature;BMP_pressure;BME280_temperature;BME280_humidity;BME280_pressure;Samples;Min_cycle;Max_cycle;Signal;HPM_P1;HPM_P2
2024/02/29 00:01:43;;;;;;;4.80;4.28;;;;;;;18.57;41.98;101542.50;5096080;28;20039;-68
2024/02/29 00:04:09;;;;;;;5.82;4.03;;;;;;;18.48;41.92;101532.88;5097135;28;20097;-68
2024/02/29 00:06:34;;;;;;;4.53;3.92;;;;;;;18.48;41.89;101523.16;5097799;28;20044;-69
2024/02/29 00:09:00;;;;;;;5.50;4.47;;;;;;;18.49;41.85;101527.47;5095621;28;20050;-68
2024/02/29 00:11:26;;;;;;;5.25;4.05;;;;;;;18.50;42.02;101526.50;5098625;28;20024;-68
2024/02/29 00:13:52;;;;;;;5.25;4.30;;;;;;;18.49;41.87;101524.84;5098484;28;20035;-68
2024/02/29 00:16:18;;;;;;;4.38;3.90;;;;;;;18.43;41.97;101517.53;5094425;28;20039;-68
2024/02/29 00:18:45;;;;;;;4.97;4.05;;;;;;;18.45;41.85;101510.28;5099279;28;20065;-69
2024/02/29 00:21:10;;;;;;;4.60;3.83;;;;;;;18.40;42.00;101507.28;5072758;28;20067;-68
2024/02/29 00:23:37;;;;;;;4.38;3.88;;;;;;;18.41;42.10;101517.66;5097909;28;20071;-68
2024/02/29 00:26:02;;;;;;;4.70;4.20;;;;;;;18.40;41.96;101509.91;5099995;28;20028;-68
2024/02/29 00:28:28;;;;;;;4.80;4.30;;;;;;;18.41;41.94;101519.47;5064899;28;20547;-68
2024/02/29 00:30:54;;;;;;;4.88;3.97;;;;;;;18.39;42.02;101516.19;5096893;28;20060;-70
2024/02/29 00:33:20;;;;;;;4.53;3.80;;;;;;;18.38;42.05;101515.34;5097721;28;20028;-68
2024/02/29 00:35:45;;;;;;;4.32;3.90;;;;;;;18.33;42.10;101506.25;5095325;28;20100;-68
2024/02/29 00:38:11;;;;;;;5.00;4.10;;;;;;;18.32;41.96;101507.22;5098194;28;20127;-68
2024/02/29 00:40:37;;;;;;;4.80;3.92;;;;;;;18.30;42.04;101490.72;5098777;27;20040;-68
2024/02/29 00:43:03;;;;;;;4.50;3.80;;;;;;;18.30;42.20;101491.53;5095317;28;20046;-68
2024/02/29 00:45:29;;;;;;;4.65;3.80;;;;;;;18.28;42.16;101476.84;5094885;28;20348;-68
2024/02/29 00:47:54;;;;;;;4.70;4.03;;;;;;;18.29;42.14;101475.88;5096929;28;20256;-68
2024/02/29 00:50:23;;;;;;;4.82;3.78;;;;;;;18.28;42.26;101476.84;5095160;28;20089;-68
2024/02/29 00:52:48;;;;;;;4.70;4.10;;;;;;;18.24;42.13;101463.16;5096548;28;20039;-69
2024/02/29 00:55:14;;;;;;;4.43;3.67;;;;;;;18.24;42.32;101470.25;5099782;28;20043;-68
2024/02/29 00:57:40;;;;;;;5.00;4.18;;;;;;;18.21;42.18;101471.38;5094160;28;20064;-68
2024/02/29 01:00:11;;;;;;;4.20;3.70;;;;;;;18.20;42.31;101467.09;5095740;28;20036;-67
2024/02/29 01:02:37;;;;;;;5.07;3.78;;;;;;;18.20;42.18;101461.81;5097748;28;20039;-68
2024/02/29 01:05:03;;;;;;;4.78;4.05;;;;;;;18.18;42.24;101450.59;5094435;28;20097;-68
2024/02/29 01:07:28;;;;;;;4.32;3.78;;;;;;;18.19;42.33;101449.63;5093349;28;20042;-68
2024/02/29 01:09:56;;;;;;;4.68;3.70;;;;;;;18.15;42.41;101445.66;5099394;28;20095;-68
2024/02/29 01:12:21;;;;;;;5.22;4.20;;;;;;;18.15;42.36;101442.19;5098745;28;20092;-68
2024/02/29 01:14:47;;;;;;;4.78;3.55;;;;;;;18.09;42.47;101444.44;5100675;28;20063;-68
2024/02/29 01:17:12;;;;;;;4.55;3.65;;;;;;;18.09;42.49;101440.97;5096799;28;20047;-68
2024/02/29 01:19:38;;;;;;;4.32;3.50;;;;;;;18.12;42.43;101441.47;5095845;28;20398;-68
2024/02/29 01:22:04;;;;;;;4.10;3.70;;;;;;;18.11;42.30;101434.56;5100590;28;20789;-68
2024/02/29 01:24:29;;;;;;;4.10;3.55;;;;;;;18.13;42.36;101437.03;5103171;28;20058;-68
2024/02/29 01:26:55;;;;;;;4.50;3.70;;;;;;;18.11;42.27;101431.91;5083653;28;20067;-68
2024/02/29 01:29:20;;;;;;;4.47;3.83;;;;;;;18.16;42.44;101438.56;5099475;28;20047;-68
2024/02/29 01:31:46;;;;;;;3.90;3.38;;;;;;;18.13;42.52;101431.78;5094122;28;20043;-68
2024/02/29 01:34:12;;;;;;;4.22;3.83;;;;;;;18.16;42.20;101423.56;5098248;28;20035;-68
2024/02/29 01:36:37;;;;;;;3.95;3.55;;;;;;;18.12;42.54;101416.94;5100905;28;20087;-68
2024/02/29 01:39:03;;;;;;;3.85;3.13;;;;;;;18.16;42.37;101417.47;5078899;28;20039;-68
2024/02/29 01:41:28;;;;;;;4.50;3.60;;;;;;;18.16;42.35;101412.22;5096584;28;20028;-68
2024/02/29 01:43:54;;;;;;;4.53;3.75;;;;;;;18.15;42.19;101407.91;5097930;28;20474;-68
2024/02/29 01:46:21;;;;;;;3.95;3.55;;;;;;;18.15;42.38;101403.47;5097902;28;20590;-68
2024/02/29 01:48:50;;;;;;;4.68;3.92;;;;;;;18.16;42.33;101396.41;5082393;28;20036;-69
2024/02/29 01:51:20;;;;;;;4.35;3.95;;;;;;;18.14;42.36;101401.00;5092840;28;20035;-68
2024/02/29 01:53:46;;;;;;;3.70;3.30;;;;;;;18.11;42.41;101383.66;5097609;28;20537;-68
2024/02/29 01:56:14;;;;;;;4.20;3.47;;;;;;;18.12;42.28;101387.94;5100633;27;20035;-68
2024/02/29 01:58:43;;;;;;;4.05;3.65;;;;;;;18.13;42.42;101386.97;5099386;28;20036;-68
2024/02/29 02:01:08;;;;;;;3.63;3.22;;;;;;;18.14;42.32;101387.81;5066097;27;20375;-68
2024/02/29 02:03:34;;;;;;;5.20;3.58;;;;;;;18.10;42.34;101380.19;5105703;28;20044;-68
2024/02/29 02:06:00;;;;;;;3.75;3.28;;;;;;;18.09;42.10;101369.81;5098118;27;20164;-68
2024/02/29 02:08:29;;;;;;;3.60;3.10;;;;;;;18.11;42.15;101375.75;5098160;27;20031;-68
2024/02/29 02:10:55;;;;;;;4.20;3.42;;;;;;;18.09;42.33;101362.72;5103487;28;20063;-68
2024/02/29 02:13:20;;;;;;;4.43;3.22;;;;;;;18.03;42.31;101346.72;5082556;28;20708;-68
2024/02/29 02:15:46;;;;;;;4.25;3.30;;;;;;;18.09;42.48;101356.63;5084129;28;20036;-69
2024/02/29 02:18:11;;;;;;;4.70;3.50;;;;;;;18.07;42.35;101348.88;5100283;28;20066;-68
2024/02/29 02:20:37;;;;;;;3.78;3.35;;;;;;;18.09;42.41;101352.19;5100754;28;20036;-68
2024/02/29 02:23:03;;;;;;;3.47;3.17;;;;;;;18.07;42.25;101340.97;5101056;28;20150;-68
2024/02/29 02:25:28;;;;;;;4.07;3.35;;;;;;;18.07;42.19;101351.53;5100718;28;20047;-68
2024/02/29 02:27:54;;;;;;;3.85;3.45;;;;;;;18.07;42.22;101333.06;5103375;28;20059;-68
2024/02/29 02:30:20;;;;;;;4.57;3.55;;;;;;;18.00;42.31;101316.25;5099879;28;20054;-68
2024/02/29 02:32:45;;;;;;;4.30;3.33;;;;;;;18.08;42.41;101331.25;5099112;28;20745;-68
2024/02/29 02:35:11;;;;;;;3.75;3.17;;;;;;;18.05;42.31;101321.84;5100028;28;20035;-68
2024/02/29 02:37:36;;;;;;;3.35;3.00;;;;;;;18.06;42.35;101312.97;5084648;28;20829;-69
2024/02/29 02:40:06;;;;;;;4.25;3.53;;;;;;;18.07;42.47;101308.53;5097582;28;20023;-68
2024/02/29 02:42:31;;;;;;;3.70;3.20;;;;;;;18.05;42.29;101303.41;5098201;28;20119;-68
2024/02/29 02:44:57;;;;;;;4.57;3.15;;;;;;;18.05;42.27;101300.78;5100110;28;20778;-68
2024/02/29 02:47:23;;;;;;;4.25;3.53;;;;;;;18.06;42.20;101291.06;5100819;28;20032;-68
2024/02/29 02:49:49;;;;;;;4.50;3.40;;;;;;;18.02;42.44;101285.28;5101103;28;20063;-68
2024/02/29 02:52:14;;;;;;;4.75;3.33;;;;;;;18.01;42.35;101288.06;5097029;28;20039;-68
2024/02/29 02:54:40;;;;;;;3.67;3.15;;;;;;;17.99;42.61;101284.78;5100459;28;20048;-69
2024/02/29 02:57:05;;;;;;;3.58;3.22;;;;;;;17.97;42.67;101276.22;5099120;28;20043;-68
2024/02/29 02:59:32;;;;;;;3.80;3.38;;;;;;;17.96;42.88;101280.66;5099876;28;20066;-69
2024/02/29 03:01:57;;;;;;;3.97;3.33;;;;;;;17.97;42.69;101287.56;5075877;28;20047;-68
2024/02/29 03:04:23;;;;;;;3.35;3.03;;;;;;;17.98;42.59;101275.22;5096964;27;20044;-67
2024/02/29 03:06:48;;;;;;;3.63;3.13;;;;;;;17.93;42.50;101261.66;5095942;28;20091;-68
2024/02/29 03:09:14;;;;;;;3.60;3.22;;;;;;;17.92;42.42;101265.28;5081664;28;20124;-68
2024/02/29 03:11:39;;;;;;;4.07;3.42;;;;;;;17.93;42.45;101259.03;5101920;28;20031;-67
2024/02/29 03:14:05;;;;;;;4.35;3.30;;;;;;;17.97;42.65;101261.22;5100352;28;20436;-68
2024/02/29 03:16:34;;;;;;;3.45;3.03;;;;;;;17.98;42.38;101251.50;5097060;28;20551;-68
2024/02/29 03:19:00;;;;;;;3.87;3.40;;;;;;;17.98;42.14;101243.59;5102575;28;20042;-68
2024/02/29 03:21:27;;;;;;;4.53;3.17;;;;;;;18.00;42.47;101253.00;5078946;28;20945;-68
2024/02/29 03:23:53;;;;;;;4.20;3.47;;;;;;;18.01;42.52;101245.91;5091055;28;20062;-68
2024/02/29 03:26:19;;;;;;;3.88;3.47;;;;;;;18.01;42.43;101246.75;5101319;28;20047;-68
2024/02/29 03:28:45;;;;;;;3.95;3.50;;;;;;;18.03;42.42;101243.94;5099906;28;20086;-68
2024/02/29 03:31:12;;;;;;;3.88;3.30;;;;;;;18.01;42.54;101244.09;5100422;27;20028;-68
2024/02/29 03:33:38;;;;;;;3.90;3.17;;;;;;;17.99;42.44;101232.91;5102151;28;20399;-68
2024/02/29 03:36:03;;;;;;;4.40;3.33;;;;;;;18.01;42.47;101232.75;5101716;28;20053;-68
2024/02/29 03:38:29;;;;;;;3.50;3.20;;;;;;;17.93;42.44;101220.34;5097685;28;20345;-68
2024/02/29 03:40:54;;;;;;;4.05;3.65;;;;;;;17.94;42.57;101224.63;5083903;28;20038;-68
2024/02/29 03:43:20;;;;;;;3.58;2.90;;;;;;;17.85;42.61;101201.88;5092896;28;20035;-68
2024/02/29 03:45:45;;;;;;;4.20;3.03;;;;;;;17.93;42.54;101214.25;5100729;27;20723;-68
2024/02/29 03:48:11;;;;;;;4.20;3.10;;;;;;;17.95;42.55;101222.81;5101886;28;20046;-68
2024/02/29 03:50:36;;;;;;;3.78;3.40;;;;;;;17.89;42.61;101205.00;5100580;27;20056;-68
2024/02/29 03:53:02;;;;;;;3.38;3.08;;;;;;;17.96;42.57;101206.88;5084506;28;20100;-68
2024/02/29 03:55:28;;;;;;;4.03;3.50;;;;;;;17.97;42.56;101213.78;5083733;27;20035;-68
2024/02/29 03:57:53;;;;;;;4.38;3.60;;;;;;;17.97;42.50;101207.69;5098942;28;20032;-68
2024/02/29 04:00:19;;;;;;;3.53;3.20;;;;;;;17.95;42.36;101205.19;5095408;28;20039;-68
2024/02/29 04:02:44;;;;;;;3.75;3.10;;;;;;;17.94;42.50;101200.91;5097256;28;20106;-68
2024/02/29 04:05:10;;;;;;;3.60;3.13;;;;;;;17.96;42.56;101196.31;5098841;28;20100;-69
2024/02/29 04:07:42;;;;;;;4.22;3.15;;;;;;;17.93;42.54;101193.16;5098824;28;20043;-68
2024/02/29 04:10:09;;;;;;;3.92;3.00;;;;;;;17.95;42.46;101194.66;5096036;27;20035;-68
2024/02/29 04:12:34;;;;;;;3.88;3.10;;;;;;;17.95;42.71;101188.56;5095926;28;20058;-68
2024/02/29 04:15:03;;;;;;;3.17;2.88;;;;;;;17.95;42.44;101189.38;5099896;28;20048;-68
2024/02/29 04:17:31;;;;;;;4.22;3.40;;;;;;;17.97;42.53;101190.06;5083853;28;20403;-68
2024/02/29 04:19:57;;;;;;;3.72;3.20;;;;;;;17.98;42.51;101183.00;5100677;28;20489;-68
2024/02/29 04:22:23;;;;;;;4.05;3.45;;;;;;;17.98;42.34;101177.72;5097085;28;20044;-67
2024/02/29 04:24:49;;;;;;;3.85;3.00;;;;;;;17.98;42.34;101185.63;5098163;28;20027;-68
2024/02/29 04:27:15;;;;;;;3.33;2.90;;;;;;;17.97;42.29;101176.91;5096091;28;20035;-68
2024/02/29 04:29:40;;;;;;;3.50;3.17;;;;;;;17.96;42.21;101172.63;5101692;28;20062;-68
2024/02/29 04:32:09;;;;;;;3.97;3.28;;;;;;;17.95;42.64;101168.31;5099011;28;20043;-68
2024/02/29 04:34:35;;;;;;;3.03;2.72;;;;;;;17.93;42.34;101165.00;5083608;28;20071;-68
2024/02/29 04:37:00;;;;;;;3.67;2.75;;;;;;;17.91;42.37;101166.16;5082149;28;20048;-67
2024/02/29 04:39:26;;;;;;;3.30;3.00;;;;;;;17.94;42.37;101163.19;5091532;28;20084;-68
2024/02/29 04:41:51;;;;;;;4.07;3.00;;;;;;;17.91;42.35;101156.44;5095573;28;20047;-68
2024/02/29 04:44:18;;;;;;;3.83;3.20;;;;;;;17.92;42.29;101152.00;5098374;28;20063;-68
2024/02/29 04:46:43;;;;;;;3.70;3.40;;;;;;;17.91;42.23;101155.59;5100003;28;20468;-68
2024/02/29 04:49:09;;;;;;;3.55;3.15;;;;;;;17.91;42.37;101158.25;5091943;28;20140;-68
2024/02/29 04:51:34;;;;;;;3.72;3.33;;;;;;;17.90;42.58;101148.69;5107812;28;20126;-68
2024/02/29 04:54:00;;;;;;;3.47;2.88;;;;;;;17.90;42.29;101152.16;5101803;28;20032;-68
2024/02/29 04:56:25;;;;;;;3.30;3.00;;;;;;;17.89;42.42;101149.69;5101036;28;20036;-68
2024/02/29 04:58:51;;;;;;;3.80;2.97;;;;;;;17.88;42.42;101143.59;5098431;28;20035;-68
2024/02/29 05:01:16;;;;;;;3.90;3.28;;;;;;;17.86;42.53;101142.91;5098200;28;20048;-68
2024/02/29 05:03:42;;;;;;;3.28;2.97;;;;;;;17.86;42.74;101139.47;5096806;28;20512;-68
2024/02/29 05:06:13;;;;;;;3.50;3.00;;;;;;;17.87;42.77;101141.13;5104303;28;20888;-68
2024/02/29 05:08:39;;;;;;;3.10;2.80;;;;;;;17.88;42.68;101127.78;5066775;28;20035;-68
2024/02/29 05:11:08;;;;;;;3.97;3.30;;;;;;;17.90;42.54;101130.25;5101376;28;20028;-68
2024/02/29 05:13:34;;;;;;;3.67;3.20;;;;;;;17.91;42.57;101140.63;5101465;28;20081;-69
2024/02/29 05:16:03;;;;;;;4.65;3.08;;;;;;;17.92;42.59;101134.38;5097350;28;20059;-68
2024/02/29 05:18:28;;;;;;;3.55;3.25;;;;;;;17.92;42.51;101133.53;5101265;28;20674;-69
2024/02/29 05:20:54;;;;;;;3.95;3.30;;;;;;;17.92;42.61;101141.44;5081533;28;20031;-68
2024/02/29 05:23:20;;;;;;;3.00;2.70;;;;;;;17.90;42.70;101124.97;5084069;28;20035;-68
2024/02/29 05:25:45;;;;;;;3.33;3.03;;;;;;;17.89;42.62;101120.69;5101851;28;20368;-68
2024/02/29 05:28:11;;;;;;;3.47;3.00;;;;;;;17.92;42.69;101112.47;5098820;28;20857;-68
2024/02/29 05:30:37;;;;;;;3.45;3.00;;;;;;;17.89;42.87;101118.06;5102380;27;20054;-68
2024/02/29 05:33:02;;;;;;;4.60;3.05;;;;;;;17.91;42.70;101111.66;5102708;27;20024;-68
2024/02/29 05:35:28;;;;;;;2.85;2.58;;;;;;;17.90;42.78;101106.53;5103521;27;20032;-68
2024/02/29 05:37:54;;;;;;;4.05;3.30;;;;;;;17.90;42.82;101096.81;5106014;27;20043;-68
2024/02/29 05:40:20;;;;;;;4.18;2.95;;;;;;;17.95;42.71;101102.44;5101639;27;20028;-67
2024/02/29 05:42:45;;;;;;;2.92;2.63;;;;;;;17.96;42.66;101096.19;5104170;27;20054;-68
2024/02/29 05:45:12;;;;;;;3.25;2.95;;;;;;;17.96;42.48;101098.84;5107441;27;20046;-68
2024/02/29 05:47:38;;;;;;;3.22;2.90;;;;;;;17.95;42.54;101097.16;5100133;28;20066;-68
2024/02/29 05:50:04;;;;;;;3.28;2.67;;;;;;;17.97;42.37;101100.50;5081645;28;20467;-68
2024/02/29 05:52:30;;;;;;;3.58;2.97;;;;;;;17.97;42.45;101103.13;5100986;28;20127;-68
2024/02/29 05:54:56;;;;;;;3.03;2.72;;;;;;;17.99;42.68;101097.69;5104802;27;20039;-68
2024/02/29 05:57:24;;;;;;;3.28;2.97;;;;;;;17.99;42.46;101101.16;5102974;28;20476;-68
2024/02/29 05:59:50;;;;;;;3.78;2.88;;;;;;;17.97;42.51;101100.50;5104294;27;20530;-68
2024/02/29 06:02:15;;;;;;;3.10;2.72;;;;;;;18.00;42.36;101099.34;5104178;27;20051;-68
2024/02/29 06:04:41;;;;;;;3.33;2.83;;;;;;;18.01;42.36;101091.28;5104955;27;20074;-68
2024/02/29 06:07:07;;;;;;;3.03;2.72;;;;;;;17.96;42.44;101092.75;5103241;27;20378;-68
2024/02/29 06:09:35;;;;;;;3.33;2.90;;;;;;;17.97;42.33;101092.59;5109473;27;20063;-68
2024/02/29 06:12:01;;;;;;;3.42;2.90;;;;;;;17.99;42.58;101095.88;5101306;27;20043;-68
2024/02/29 06:14:27;;;;;;;3.60;2.80;;;;;;;17.99;42.49;101097.69;5096786;28;20047;-67
2024/02/29 06:16:52;;;;;;;3.47;2.70;;;;;;;17.99;42.55;101092.41;5107488;27;20126;-68
2024/02/29 06:19:18;;;;;;;3.30;2.80;;;;;;;17.95;42.70;101096.34;5102714;28;20043;-68
2024/02/29 06:21:43;;;;;;;3.13;2.83;;;;;;;17.96;42.42;101100.66;5105827;28;20086;-67
2024/02/29 06:24:09;;;;;;;2.97;2.60;;;;;;;17.96;42.42;101092.75;5095636;28;20084;-68
2024/02/29 06:26:35;;;;;;;3.05;2.75;;;;;;;17.95;42.44;101097.16;5096409;27;20817;-68
2024/02/29 06:29:01;;;;;;;2.80;2.50;;;;;;;17.97;42.46;101102.28;5097265;27;20064;-68
2024/02/29 06:31:26;;;;;;;3.25;2.67;;;;;;;17.95;42.51;101097.16;5102474;28;20040;-68
2024/02/29 06:33:52;;;;;;;4.03;2.95;;;;;;;17.96;42.40;101103.28;5081157;27;20040;-67
2024/02/29 06:36:18;;;;;;;3.17;2.70;;;;;;;17.96;42.50;101095.38;5084007;28;20083;-68
2024/02/29 06:38:44;;;;;;;3.00;2.65;;;;;;;17.94;42.52;101092.88;5101279;27;20523;-68
2024/02/29 06:41:09;;;;;;;3.63;2.92;;;;;;;17.95;42.46;101096.34;5084380;28;20032;-68
2024/02/29 06:43:35;;;;;;;3.08;2.45;;;;;;;17.89;42.37;101086.44;5102516;28;20031;-68
2024/02/29 06:46:05;;;;;;;3.15;2.67;;;;;;;17.96;42.57;101093.56;5097932;27;20479;-68
2024/02/29 06:48:31;;;;;;;3.67;3.00;;;;;;;17.93;42.54;101099.13;5097840;27;20052;-68
2024/02/29 06:50:56;;;;;;;4.53;2.92;;;;;;;17.93;42.49;101098.31;5101677;28;20360;-68
2024/02/29 06:53:22;;;;;;;2.88;2.63;;;;;;;17.92;42.44;101097.47;5096971;28;20055;-68
2024/02/29 06:55:47;;;;;;;3.20;2.63;;;;;;;17.95;42.63;101097.16;5102780;27;20040;-68
2024/02/29 06:58:13;;;;;;;3.65;2.90;;;;;;;17.93;42.49;101096.50;5099553;28;20040;-69
2024/02/29 07:00:39;;;;;;;3.00;2.42;;;;;;;17.92;42.65;101094.03;5093721;28;20031;-68
2024/02/29 07:03:06;;;;;;;3.72;2.50;;;;;;;17.92;42.66;101094.84;5099538;27;20214;-68
2024/02/29 07:05:32;;;;;;;2.80;2.50;;;;;;;17.94;42.75;101092.88;5100038;28;20035;-69
2024/02/29 07:07:57;;;;;;;3.38;3.03;;;;;;;18.00;42.78;101083.53;5103044;27;20023;-68
2024/02/29 07:10:23;;;;;;;2.97;2.45;;;;;;;18.10;42.34;101086.81;5095799;27;20090;-68
2024/02/29 07:12:49;;;;;;;2.95;2.40;;;;;;;18.24;42.08;101083.56;5111374;27;20036;-68
2024/02/29 07:15:15;;;;;;;3.40;2.60;;;;;;;18.39;42.00;101076.66;5101481;28;20636;-68
2024/02/29 07:17:41;;;;;;;2.50;2.30;;;;;;;18.47;42.07;101081.09;5084045;28;20036;-69
2024/02/29 07:20:10;;;;;;;3.15;2.80;;;;;;;18.49;42.22;101075.66;5099877;28;20427;-68
2024/02/29 07:22:37;;;;;;;2.53;2.15;;;;;;;18.50;41.95;101075.53;5102554;27;20046;-68
2024/02/29 07:25:03;;;;;;;3.60;2.60;;;;;;;18.51;42.04;101076.34;5092831;27;20062;-68
2024/02/29 07:27:29;;;;;;;3.10;2.50;;;;;;;18.55;42.04;101075.00;5099619;28;20035;-67
2024/02/29 07:29:55;;;;;;;2.60;2.38;;;;;;;18.57;42.16;101073.84;5085988;28;20082;-68
2024/02/29 07:32:20;;;;;;;2.58;2.38;;;;;;;18.63;42.15;101073.22;5092358;28;20059;-68
2024/02/29 07:34:46;;;;;;;2.90;2.25;;;;;;;18.63;42.13;101065.31;5101294;27;20632;-68
2024/02/29 07:37:11;;;;;;;2.58;2.10;;;;;;;18.69;42.21;101066.47;5085954;28;20035;-68
2024/02/29 07:39:37;;;;;;;3.08;2.53;;;;;;;18.69;42.06;101063.84;5098413;28;20047;-68
2024/02/29 07:42:03;;;;;;;2.50;2.20;;;;;;;18.71;41.86;101061.84;5102492;27;20412;-68
2024/02/29 07:44:29;;;;;;;2.72;2.35;;;;;;;18.71;41.89;101060.03;5102565;27;20044;-68
2024/02/29 07:46:54;;;;;;;2.83;2.60;;;;;;;18.74;41.93;101052.78;5101397;27;20047;-68
2024/02/29 07:49:20;;;;;;;3.47;2.50;;;;;;;18.70;42.00;101063.66;5097037;28;20031;-68
2024/02/29 07:51:46;;;;;;;2.92;2.40;;;;;;;18.70;42.01;101058.41;5090375;27;20027;-68
2024/02/29 07:54:11;;;;;;;2.47;2.28;;;;;;;18.70;42.02;101063.66;5100329;27;20034;-68
2024/02/29 07:56:40;;;;;;;3.00;2.40;;;;;;;18.68;42.01;101052.47;5099420;27;20091;-68
2024/02/29 07:59:06;;;;;;;3.05;2.42;;;;;;;18.66;41.95;101053.59;5101902;27;20054;-68
2024/02/29 08:01:32;;;;;;;2.70;2.40;;;;;;;18.66;41.88;101040.41;5097189;28;20039;-68
2024/02/29 08:03:58;;;;;;;3.25;2.60;;;;;;;18.63;42.05;101043.38;5100235;28;20099;-68
2024/02/29 08:06:23;;;;;;;2.50;2.30;;;;;;;18.60;42.19;101041.06;5099749;27;20088;-68
2024/02/29 08:08:49;;;;;;;2.67;2.47;;;;;;;18.60;42.06;101047.16;5081533;28;20439;-68
2024/02/29 08:11:14;;;;;;;2.65;2.45;;;;;;;18.55;42.04;101040.72;5097278;27;20032;-68
2024/02/29 08:13:40;;;;;;;2.45;2.25;;;;;;;18.60;42.09;101048.97;5099198;28;20035;-68
2024/02/29 08:16:06;;;;;;;2.92;2.45;;;;;;;18.58;42.06;101053.59;5096359;28;20040;-68
2024/02/29 08:18:33;;;;;;;2.65;2.10;;;;;;;18.54;41.98;101044.34;5101019;28;20618;-68
2024/02/29 08:20:58;;;;;;;3.03;2.63;;;;;;;18.56;42.10;101045.03;5096408;27;20075;-68
2024/02/29 08:23:24;;;;;;;3.17;2.58;;;;;;;18.58;41.94;101040.41;5079956;28;20457;-68
2024/02/29 08:25:50;;;;;;;2.88;2.20;;;;;;;18.55;41.86;101041.56;5076313;28;20054;-68
2024/02/29 08:28:15;;;;;;;3.35;2.50;;;;;;;18.55;41.92;101035.47;5092731;28;20136;-68
2024/02/29 08:30:41;;;;;;;3.28;2.60;;;;;;;18.55;41.87;101038.91;5093702;27;20024;-68
2024/02/29 08:33:06;;;;;;;2.80;2.50;;;;;;;18.53;42.09;101024.25;5096109;28;20044;-69
2024/02/29 08:35:32;;;;;;;3.53;2.10;;;;;;;18.54;42.27;101034.63;5079793;28;20044;-68
2024/02/29 08:37:57;;;;;;;2.85;2.47;;;;;;;18.55;41.92;101028.38;5095903;28;20543;-68
2024/02/29 08:40:23;;;;;;;2.72;2.40;;;;;;;18.59;42.01;101036.75;5096743;28;20028;-70
2024/02/29 08:42:49;;;;;;;2.95;2.53;;;;;;;18.59;42.32;101026.22;5092574;28;20046;-70
2024/02/29 08:45:14;;;;;;;2.63;2.40;;;;;;;18.58;42.13;101028.03;5096835;28;20165;-70
2024/02/29 08:47:40;;;;;;;2.45;1.98;;;;;;;18.62;42.24;101031.16;5102337;28;20134;-70
2024/02/29 08:50:06;;;;;;;2.75;2.35;;;;;;;18.61;42.08;101038.25;5098677;28;20036;-70
2024/02/29 08:52:32;;;;;;;2.50;2.30;;;;;;;18.59;42.02;101034.13;5095769;28;20126;-70
2024/02/29 08:54:58;;;;;;;3.38;2.40;;;;;;;18.62;42.07;101033.78;5079510;28;20032;-71
2024/02/29 08:57:23;;;;;;;3.30;2.50;;;;;;;18.65;42.15;101034.31;5097211;28;20474;-70
2024/02/29 08:59:49;;;;;;;2.35;2.15;;;;;;;18.65;42.22;101033.47;5092008;28;20048;-70
2024/02/29 09:02:14;;;;;;;2.28;2.03;;;;;;;18.67;42.06;101042.91;5097641;27;20046;-70
2024/02/29 09:04:40;;;;;;;2.80;2.20;;;;;;;18.67;42.24;101034.13;5099309;28;20107;-70
2024/02/29 09:07:05;;;;;;;2.55;2.35;;;;;;;18.68;42.15;101038.44;5097994;27;20031;-71
2024/02/29 09:09:31;;;;;;;2.60;2.40;;;;;;;18.68;42.23;101038.44;5084117;28;20590;-70
2024/02/29 09:11:56;;;;;;;2.78;2.40;;;;;;;18.65;42.40;101036.13;5067600;28;20134;-70
2024/02/29 09:14:22;;;;;;;4.20;2.40;;;;;;;18.65;42.32;101036.94;5100707;27;20038;-70
2024/02/29 09:16:47;;;;;;;2.42;2.22;;;;;;;18.64;42.10;101035.31;5107318;27;20043;-70
2024/02/29 09:19:13;;;;;;;3.20;2.50;;;;;;;18.65;42.19;101033.47;5080016;28;20387;-70
2024/02/29 09:21:39;;;;;;;3.20;2.25;;;;;;;18.60;42.28;101027.88;5102141;27;20031;-70
2024/02/29 09:24:06;;;;;;;3.30;2.40;;;;;;;18.60;42.43;101035.78;5099787;27;20035;-71
2024/02/29 09:26:32;;;;;;;2.45;2.25;;;;;;;18.65;42.34;101039.59;5101812;27;20482;-70
2024/02/29 09:28:58;;;;;;;3.53;2.40;;;;;;;18.68;42.27;101036.63;5098046;27;20143;-71
2024/02/29 09:31:24;;;;;;;2.47;2.10;;;;;;;18.65;42.18;101030.84;5085628;28;20047;-70
2024/02/29 09:33:49;;;;;;;2.67;2.25;;;;;;;18.68;42.17;101022.63;5103054;27;20031;-70
2024/02/29 09:36:15;;;;;;;2.30;2.10;;;;;;;18.68;42.37;101027.91;5083535;28;20124;-72
2024/02/29 09:38:41;;;;;;;3.13;2.47;;;;;;;18.66;42.03;101017.50;5101146;28;20102;-70
2024/02/29 09:41:11;;;;;;;3.00;2.45;;;;;;;18.67;42.08;101018.31;5103214;27;20042;-70
2024/02/29 09:43:36;;;;;;;2.35;2.05;;;;;;;18.70;42.13;101029.38;5102601;28;20046;-70
2024/02/29 09:46:02;;;;;;;2.45;2.10;;;;;;;18.71;42.10;101017.84;5096960;27;20039;-71
2024/02/29 09:48:29;;;;;;;2.40;2.17;;;;;;;18.70;42.07;101018.81;5103502;27;20058;-71
2024/02/29 09:51:00;;;;;;;2.65;2.30;;;;;;;18.70;41.95;101023.28;5098566;28;20028;-71
2024/02/29 09:53:27;;;;;;;2.47;2.28;;;;;;;18.69;41.93;101016.34;5100993;28;20588;-70
2024/02/29 09:55:55;;;;;;;3.05;2.42;;;;;;;18.70;41.95;101015.38;5099023;28;20186;-71
2024/02/29 09:58:21;;;;;;;2.50;2.22;;;;;;;18.69;42.15;101013.72;5100266;27;20032;-70
2024/02/29 10:00:48;;;;;;;2.60;2.10;;;;;;;18.70;41.97;101010.91;5099005;28;20043;-71
2024/02/29 10:03:16;;;;;;;2.35;2.15;;;;;;;18.71;42.07;101015.19;5096437;27;20107;-70
2024/02/29 10:05:46;;;;;;;2.70;2.40;;;;;;;18.71;42.02;101009.91;5096495;27;20394;-70
2024/02/29 10:08:12;;;;;;;2.63;2.17;;;;;;;18.71;41.98;101017.84;5101333;27;20039;-70
2024/02/29 10:10:38;;;;;;;2.20;2.00;;;;;;;18.72;42.09;101010.75;5104891;27;20040;-71
2024/02/29 10:13:06;;;;;;;2.40;2.05;;;;;;;18.77;42.19;101012.88;5096366;27;20570;-70
2024/02/29 10:15:33;;;;;;;2.35;2.15;;;;;;;18.76;42.02;101013.88;5094571;27;20035;-70
2024/02/29 10:17:59;;;;;;;2.53;2.15;;;;;;;18.76;41.90;101014.69;5100431;27;20039;-74
2024/02/29 10:20:25;;;;;;;2.38;2.17;;;;;;;18.83;42.54;101012.19;5080619;28;20043;-69
2024/02/29 10:22:54;;;;;;;2.30;2.10;;;;;;;18.82;42.52;101007.91;5099872;28;20510;-70
2024/02/29 10:25:21;;;;;;;2.63;2.15;;;;;;;18.83;42.43;101005.09;5097545;28;20149;-70
2024/02/29 10:27:47;;;;;;;2.00;1.83;;;;;;;18.83;42.34;101017.47;5095740;28;20396;-69
2024/02/29 10:30:14;;;;;;;2.00;1.90;;;;;;;18.82;42.57;101010.53;5096931;27;20044;-70
2024/02/29 10:32:45;;;;;;;2.10;1.90;;;;;;;18.82;42.26;101006.09;5094855;27;20035;-70
2024/02/29 10:35:24;;;;;;;3.40;2.20;;;;;;;18.80;42.29;101001.97;5098028;28;20437;-70
2024/02/29 10:37:56;;;;;;;2.70;2.30;;;;;;;18.80;42.33;101005.44;5094120;28;20118;-72
2024/02/29 10:40:23;;;;;;;2.28;1.98;;;;;;;18.79;42.33;101006.44;5080720;28;20569;-72
2024/02/29 10:42:56;;;;;;;2.85;2.30;;;;;;;18.80;42.21;101000.16;5098404;27;20036;-71
2024/02/29 10:45:25;;;;;;;3.47;2.35;;;;;;;18.82;42.11;100997.34;5097443;28;20050;-71
2024/02/29 10:48:11;;;;;;;2.58;2.33;;;;;;;18.82;42.26;100992.91;5096823;28;20036;-71
2024/02/29 10:51:03;;;;;;;2.60;2.40;;;;;;;18.82;42.09;100999.97;5101733;28;20070;-71
2024/02/29 10:53:51;;;;;;;2.60;2.10;;;;;;;18.82;42.17;100984.16;5080374;27;20044;-71
2024/02/29 10:56:22;;;;;;;2.65;2.10;;;;;;;18.81;42.17;100988.63;5073784;28;20674;-68
2024/02/29 10:58:59;;;;;;;2.63;2.13;;;;;;;18.82;42.16;100997.34;5097538;27;20156;-68
2024/02/29 11:01:28;;;;;;;2.33;2.10;;;;;;;18.81;42.03;100985.16;5099182;27;20015;-68
2024/02/29 11:03:53;;;;;;;2.67;2.30;;;;;;;18.79;42.16;100992.41;5099070;27;20042;-69
2024/02/29 11:06:21;;;;;;;2.28;1.92;;;;;;;18.79;42.15;100989.78;5079537;28;20804;-73
2024/02/29 11:08:48;;;;;;;11.60;3.17;;;;;;;18.86;42.34;100988.13;5097756;27;20031;-70
2024/02/29 11:11:14;;;;;;;5.55;2.53;;;;;;;18.85;42.46;100991.72;5099925;28;20169;-70
2024/02/29 11:13:41;;;;;;;4.80;2.80;;;;;;;18.81;42.46;100983.34;5105789;27;20039;-70
2024/02/29 11:16:10;;;;;;;5.07;2.42;;;;;;;18.80;42.41;100986.16;5081339;28;20040;-70
2024/02/29 11:18:37;;;;;;;2.35;2.15;;;;;;;18.77;42.50;100983.84;5099314;27;20043;-70
2024/02/29 11:21:06;;;;;;;4.55;2.20;;;;;;;18.80;42.58;100980.88;5098208;27;20150;-70